Time;durP1;ratioP1;P1;durP2;ratioP2;P2;SDS_P1;SDS_P2;PMS_P1;PMS_P2;Temp;Humidity;BMP_temperature;BMP_pressure;BME280_temperature;BME280_humidity;BME280_pressure;Samples;Min_cycle;Max_cycle;Signal;HPM_P1;HPM_P2
2024/04/21 00:00:18;;;;;;;68.03;8.93;;;;;;;5.23;100.00;97996.88;5334160;26;20004;-61
2024/04/21 00:02:43;;;;;;;69.78;11.30;;;;;;;5.29;100.00;97997.00;5337388;26;20005;-58
2024/04/21 00:05:08;;;;;;;49.20;13.18;;;;;;;4.98;100.00;98005.88;5334038;26;20064;-59
2024/04/21 00:07:34;;;;;;;51.85;8.43;;;;;;;4.84;100.00;97998.75;5334791;26;20540;-59
2024/04/21 00:09:59;;;;;;;55.70;26.00;;;;;;;4.98;100.00;97999.03;5347669;26;20012;-59
2024/04/21 00:12:24;;;;;;;52.25;8.13;;;;;;;5.03;100.00;97984.50;5336217;26;20073;-59
2024/04/21 00:14:50;;;;;;;74.60;15.93;;;;;;;4.94;100.00;97992.94;5334434;26;20013;-59
2024/04/21 00:17:15;;;;;;;54.90;8.40;;;;;;;4.93;100.00;97987.72;5336686;26;20011;-60
2024/04/21 00:19:40;;;;;;;63.85;9.70;;;;;;;5.55;100.00;97975.97;5336621;26;20020;-62
2024/04/21 00:22:06;;;;;;;45.55;7.55;;;;;;;5.43;100.00;97983.50;5337452;26;20085;-62
2024/04/21 00:24:31;;;;;;;46.22;8.10;;;;;;;5.31;100.00;97976.41;5335494;26;20680;-58
2024/04/21 00:26:57;;;;;;;68.47;9.10;;;;;;;5.38;100.00;97978.22;5340719;26;20476;-59
2024/04/21 00:29:23;;;;;;;50.30;8.27;;;;;;;5.39;100.00;97971.38;5337956;26;20005;-62
2024/04/21 00:31:48;;;;;;;98.53;11.00;;;;;;;5.64;100.00;97972.63;5333639;26;20019;-58
2024/04/21 00:34:13;;;;;;;49.60;8.80;;;;;;;5.89;100.00;97977.31;5340752;26;20058;-59
2024/04/21 00:36:39;;;;;;;43.88;8.07;;;;;;;5.62;100.00;97964.03;5332508;26;19997;-59
2024/04/21 00:39:05;;;;;;;63.28;8.63;;;;;;;5.63;100.00;97967.44;5337270;26;20015;-61
2024/04/21 00:41:30;;;;;;;34.47;8.90;;;;;;;5.75;100.00;97961.63;5339462;26;20046;-60
2024/04/21 00:43:55;;;;;;;52.60;8.60;;;;;;;6.04;100.00;97961.22;5340858;26;20012;-59
2024/04/21 00:46:21;;;;;;;47.95;7.63;;;;;;;5.85;100.00;97956.63;5337865;26;20016;-61
2024/04/21 00:48:47;;;;;;;71.75;9.32;;;;;;;6.11;100.00;97956.19;5338244;26;20534;-59
2024/04/21 00:51:12;;;;;;;75.38;9.65;;;;;;;5.98;100.00;97949.94;5336621;26;20461;-59
2024/04/21 00:53:38;;;;;;;55.25;9.07;;;;;;;5.88;100.00;97942.03;5333790;26;20001;-57
2024/04/21 00:56:05;;;;;;;47.75;7.53;;;;;;;6.04;100.00;97946.59;5330860;26;20019;-61
2024/04/21 00:58:30;;;;;;;37.80;8.82;;;;;;;5.89;100.00;97943.75;5338386;26;20498;-61
2024/04/21 01:00:57;;;;;;;85.32;11.30;;;;;;;6.04;100.00;97940.56;5328505;26;20004;-58
2024/04/21 01:03:22;;;;;;;44.20;8.30;;;;;;;5.86;100.00;97936.84;5350787;26;20009;-62
2024/04/21 01:05:47;;;;;;;65.90;10.75;;;;;;;5.94;100.00;97939.56;5332940;26;20015;-59
2024/04/21 01:08:13;;;;;;;66.38;12.82;;;;;;;5.82;100.00;97937.63;5338861;26;20000;-60
2024/04/21 01:10:38;;;;;;;46.10;8.32;;;;;;;6.21;100.00;97933.06;5335713;26;20017;-59
2024/04/21 01:13:10;;;;;;;34.00;11.82;;;;;;;6.30;100.00;97937.47;5331675;26;20019;-59
2024/04/21 01:15:36;;;;;;;48.47;8.57;;;;;;;5.99;100.00;97932.72;5336298;26;20085;-60
2024/04/21 01:18:04;;;;;;;36.78;7.93;;;;;;;6.05;100.00;97929.41;5334093;26;20008;-60
2024/04/21 01:20:30;;;;;;;28.75;7.88;;;;;;;5.98;100.00;97925.84;5337620;26;20001;-60
2024/04/21 01:22:55;;;;;;;94.47;11.30;;;;;;;5.79;100.00;97924.72;5333301;26;20005;-59
2024/04/21 01:25:21;;;;;;;46.72;8.60;;;;;;;6.05;100.00;97935.41;5338107;26;20011;-60
2024/04/21 01:27:46;;;;;;;66.25;9.57;;;;;;;6.03;100.00;97929.38;5341653;26;20001;-60
2024/04/21 01:30:11;;;;;;;66.70;10.43;;;;;;;6.12;100.00;97924.34;5336950;26;20356;-58
2024/04/21 01:32:37;;;;;;;36.35;7.18;;;;;;;6.10;100.00;97925.16;5341960;26;19997;-61
2024/04/21 01:35:03;;;;;;;35.53;9.90;;;;;;;5.86;100.00;97919.66;5335537;26;20012;-61
2024/04/21 01:37:28;;;;;;;47.95;8.57;;;;;;;6.06;100.00;97920.81;5337613;26;20502;-62
2024/04/21 01:39:54;;;;;;;65.28;10.65;;;;;;;6.28;100.00;97918.50;5336947;26;20005;-62
2024/04/21 01:42:19;;;;;;;35.38;7.72;;;;;;;6.15;100.00;97920.03;5340473;26;20382;-59
2024/04/21 01:44:44;;;;;;;45.58;8.20;;;;;;;5.91;100.00;97913.69;5337265;26;20184;-59
2024/04/21 01:47:09;;;;;;;51.47;10.27;;;;;;;6.03;100.00;97910.41;5340374;26;20454;-60
2024/04/21 01:49:35;;;;;;;34.00;7.65;;;;;;;5.90;100.00;97912.81;5338577;26;20018;-58
2024/04/21 01:52:00;;;;;;;52.22;9.13;;;;;;;5.60;100.00;97914.09;5332562;26;20382;-59
2024/04/21 01:54:25;;;;;;;63.38;11.35;;;;;;;5.75;100.00;97897.97;5337952;26;20020;-60
2024/04/21 01:56:51;;;;;;;79.90;10.60;;;;;;;5.92;100.00;97902.50;5337571;26;20013;-61
2024/04/21 01:59:16;;;;;;;55.53;10.02;;;;;;;5.89;100.00;97903.34;5335845;26;20001;-63
2024/04/21 02:01:41;;;;;;;57.92;9.50;;;;;;;5.68;100.00;97896.16;5333803;26;20005;-61
2024/04/21 02:04:06;;;;;;;39.67;8.05;;;;;;;5.51;100.00;97891.63;5338100;26;20047;-61
2024/04/21 02:06:32;;;;;;;34.13;9.88;;;;;;;5.54;100.00;97889.09;5340282;26;20011;-60
2024/04/21 02:08:57;;;;;;;83.85;25.48;;;;;;;5.67;100.00;97884.97;5334036;26;20011;-61
2024/04/21 02:11:22;;;;;;;76.78;17.02;;;;;;;5.28;100.00;97879.22;5336978;26;20486;-60
2024/04/21 02:13:48;;;;;;;63.17;10.70;;;;;;;5.02;100.00;97877.09;5340120;26;20001;-62
2024/04/21 02:16:13;;;;;;;62.50;10.00;;;;;;;5.38;100.00;97872.47;5336086;26;20442;-61
2024/04/21 02:18:38;;;;;;;51.60;10.00;;;;;;;5.39;100.00;97874.25;5338780;26;20412;-61
2024/04/21 02:21:04;;;;;;;38.30;7.72;;;;;;;5.27;100.00;97874.03;5338255;26;20020;-58
2024/04/21 02:23:29;;;;;;;43.03;9.93;;;;;;;5.32;100.00;97864.66;5341574;26;19997;-60
2024/04/21 02:25:59;;;;;;;82.10;11.27;;;;;;;5.31;100.00;97871.53;5338539;26;20470;-58
2024/04/21 02:28:24;;;;;;;52.83;9.35;;;;;;;5.52;100.00;97864.97;5337666;26;20456;-61
2024/04/21 02:30:50;;;;;;;64.13;9.93;;;;;;;5.44;100.00;97857.13;5333560;26;20082;-59
2024/04/21 02:33:15;;;;;;;69.47;9.70;;;;;;;5.23;100.00;97860.22;5336082;26;20001;-59
2024/04/21 02:35:40;;;;;;;41.53;9.23;;;;;;;5.48;100.00;97852.84;5336316;26;20016;-58
2024/04/21 02:38:06;;;;;;;40.00;9.27;;;;;;;5.33;100.00;97854.38;5333948;26;20012;-61
2024/04/21 02:40:31;;;;;;;48.88;16.40;;;;;;;5.65;100.00;97849.66;5337254;26;20001;-61
2024/04/21 02:42:56;;;;;;;76.22;10.73;;;;;;;5.74;100.00;97844.63;5336525;26;19997;-62
2024/04/21 02:45:22;;;;;;;56.80;9.38;;;;;;;5.67;100.00;97847.94;5337291;26;20051;-62
2024/04/21 02:47:47;;;;;;;59.40;13.10;;;;;;;5.59;100.00;97840.13;5337647;26;20744;-63
2024/04/21 02:50:12;;;;;;;46.35;9.30;;;;;;;5.83;100.00;97842.16;5337439;26;20010;-60
2024/04/21 02:52:38;;;;;;;46.83;19.77;;;;;;;5.42;100.00;97829.56;5336524;26;20004;-60
2024/04/21 02:55:03;;;;;;;90.20;15.45;;;;;;;5.64;100.00;97835.03;5335437;26;20001;-59
2024/04/21 02:57:29;;;;;;;52.13;9.90;;;;;;;5.34;100.00;97832.88;5340489;26;20369;-62
2024/04/21 02:59:55;;;;;;;86.72;11.98;;;;;;;5.49;100.00;97830.53;5336338;26;20438;-58
2024/04/21 03:02:21;;;;;;;60.85;10.77;;;;;;;5.19;100.00;97833.53;5337652;26;19997;-62
2024/04/21 03:04:46;;;;;;;44.00;10.88;;;;;;;5.49;100.00;97826.22;5339315;26;20361;-60
2024/04/21 03:07:11;;;;;;;37.40;10.15;;;;;;;5.39;100.00;97824.34;5335796;26;20378;-61
2024/04/21 03:09:40;;;;;;;57.25;9.68;;;;;;;5.38;100.00;97820.91;5337296;26;20476;-59
2024/04/21 03:12:06;;;;;;;83.55;13.15;;;;;;;5.10;100.00;97812.75;5332661;26;20016;-60
2024/04/21 03:14:31;;;;;;;42.58;12.38;;;;;;;5.13;100.00;97814.50;5342415;26;20074;-61
2024/04/21 03:16:56;;;;;;;82.28;12.32;;;;;;;5.33;100.00;97801.91;5334794;26;20381;-60
2024/04/21 03:19:22;;;;;;;57.33;10.05;;;;;;;5.15;100.00;97803.38;5352680;26;20024;-60
2024/04/21 03:21:47;;;;;;;42.60;8.63;;;;;;;4.97;100.00;97800.53;5334839;26;20088;-58
2024/04/21 03:24:13;;;;;;;61.42;16.50;;;;;;;5.18;100.00;97789.66;5332156;26;20000;-59
2024/04/21 03:26:38;;;;;;;50.83;10.80;;;;;;;5.25;100.00;97788.03;5335788;26;20745;-59
2024/04/21 03:29:03;;;;;;;84.03;12.85;;;;;;;5.27;100.00;97782.06;5333053;26;20047;-62
2024/04/21 03:31:29;;;;;;;44.75;16.42;;;;;;;5.42;100.00;97786.56;5339880;26;20074;-62
2024/04/21 03:33:54;;;;;;;84.43;11.07;;;;;;;5.17;100.00;97781.06;5338823;26;20008;-60
2024/04/21 03:36:19;;;;;;;47.42;8.93;;;;;;;4.92;100.00;97785.84;5339183;26;20258;-60
2024/04/21 03:38:44;;;;;;;44.28;10.45;;;;;;;5.02;100.00;97779.13;5340598;26;20019;-59
2024/04/21 03:41:10;;;;;;;84.30;16.60;;;;;;;5.03;100.00;97774.81;5332904;26;20547;-60
2024/04/21 03:43:35;;;;;;;47.08;26.83;;;;;;;4.79;100.00;97777.03;5336785;26;20463;-62
2024/04/21 03:46:01;;;;;;;73.35;11.43;;;;;;;4.83;100.00;97785.69;5332096;26;20015;-61
2024/04/21 03:48:26;;;;;;;60.22;12.00;;;;;;;5.22;100.00;97770.81;5336608;26;20019;-59
2024/04/21 03:50:51;;;;;;;52.38;9.07;;;;;;;5.17;100.00;97775.03;5336439;26;20550;-63
2024/04/21 03:53:18;;;;;;;51.40;9.10;;;;;;;5.15;100.00;97769.84;5339076;26;20079;-59
2024/04/21 03:55:44;;;;;;;51.90;9.48;;;;;;;5.17;100.00;97764.72;5335520;26;20009;-63
2024/04/21 03:58:11;;;;;;;95.82;11.48;;;;;;;5.21;100.00;97771.66;5336578;26;20015;-60
2024/04/21 04:00:37;;;;;;;44.10;9.18;;;;;;;5.10;100.00;97762.91;5339162;26;20015;-63
2024/04/21 04:03:02;;;;;;;107.22;25.73;;;;;;;5.03;100.00;97761.94;5335764;26;20004;-61
2024/04/21 04:05:28;;;;;;;56.80;11.15;;;;;;;5.06;100.00;97762.84;5334079;26;20005;-59
2024/04/21 04:07:53;;;;;;;49.80;8.98;;;;;;;4.84;100.00;97756.50;5335715;26;19997;-60
2024/04/21 04:10:18;;;;;;;67.78;16.45;;;;;;;4.99;100.00;97748.16;5337024;26;20055;-63
2024/04/21 04:12:44;;;;;;;82.45;49.60;;;;;;;5.07;100.00;97753.41;5334448;26;20028;-62
2024/04/21 04:15:09;;;;;;;83.88;15.07;;;;;;;4.82;100.00;97753.91;5336648;26;20012;-60
2024/04/21 04:17:35;;;;;;;48.67;9.43;;;;;;;4.88;100.00;97752.25;5338063;26;20528;-62
2024/04/21 04:20:01;;;;;;;82.07;13.13;;;;;;;4.85;100.00;97747.06;5335652;26;20005;-64
2024/04/21 04:22:27;;;;;;;51.67;9.30;;;;;;;5.17;100.00;97742.41;5337918;26;20050;-59
2024/04/21 04:24:52;;;;;;;44.72;8.82;;;;;;;5.15;100.00;80842.53;5336458;26;20012;-59
2024/04/21 04:27:17;;;;;;;62.60;11.18;;;;;;;-148.24;100.00;61531.34;5339677;26;19997;-59
2024/04/21 04:29:43;;;;;;;39.45;10.00;;;;;;;-148.24;100.00;61531.34;5339894;26;20391;-59
2024/04/21 04:32:08;;;;;;;81.13;14.70;;;;;;;-148.24;100.00;61531.34;5331737;26;20060;-62
2024/04/21 04:34:34;;;;;;;68.03;11.70;;;;;;;-148.24;100.00;61531.34;5333646;26;20039;-62
2024/04/21 04:36:59;;;;;;;79.78;12.00;;;;;;;-148.24;100.00;61531.34;5335342;26;20017;-61
2024/04/21 04:39:25;;;;;;;50.53;16.60;;;;;;;-148.24;100.00;61531.34;5337642;26;20066;-59
2024/04/21 04:41:50;;;;;;;61.53;10.88;;;;;;;191.49;100.00;97746.66;5336006;26;20004;-60
2024/04/21 04:44:15;;;;;;;56.28;12.82;;;;;;;4.84;100.00;97729.84;5334814;26;20019;-60
2024/04/21 04:46:41;;;;;;;30.63;9.50;;;;;;;4.36;100.00;97730.84;5340324;26;20119;-59
2024/04/21 04:49:06;;;;;;;102.95;21.42;;;;;;;4.63;100.00;97728.66;5335406;26;20020;-59
2024/04/21 04:51:31;;;;;;;48.17;15.57;;;;;;;4.67;100.00;97727.88;5338056;26;20015;-59
2024/04/21 04:53:56;;;;;;;45.88;10.35;;;;;;;4.63;100.00;97726.09;5337758;26;20011;-59
2024/04/21 04:56:22;;;;;;;59.72;9.77;;;;;;;4.75;100.00;97730.59;5335223;26;20000;-61
2024/04/21 04:58:47;;;;;;;58.25;36.42;;;;;;;4.95;100.00;97724.00;5342723;26;20004;-59
2024/04/21 05:01:12;;;;;;;89.40;12.50;;;;;;;5.10;100.00;97722.53;5335051;26;20033;-60
2024/04/21 05:03:38;;;;;;;66.03;33.83;;;;;;;4.74;100.00;97724.56;5342556;26;20011;-59
2024/04/21 05:06:03;;;;;;;80.43;13.68;;;;;;;4.70;100.00;97725.38;5336797;26;20609;-61
2024/04/21 05:08:28;;;;;;;52.33;16.52;;;;;;;4.74;100.00;97729.72;5369961;26;20001;-60
2024/04/21 05:10:54;;;;;;;73.07;45.45;;;;;;;4.65;100.00;97725.31;5339263;26;20013;-61
2024/04/21 05:13:19;;;;;;;70.00;21.27;;;;;;;4.79;100.00;97728.06;5340482;26;20017;-61
2024/04/21 05:15:46;;;;;;;51.92;12.40;;;;;;;4.78;100.00;97725.47;5337739;26;20361;-59
2024/04/21 05:18:11;;;;;;;94.47;12.10;;;;;;;4.78;100.00;97725.47;5343100;26;20076;-59
2024/04/21 05:20:37;;;;;;;67.55;19.15;;;;;;;4.78;100.00;97725.47;5339847;26;20048;-59
2024/04/21 05:23:02;;;;;;;100.95;21.50;;;;;;;-148.24;100.00;61531.34;5339043;26;20012;-61
2024/04/21 05:25:28;;;;;;;59.67;24.27;;;;;;;-148.24;100.00;61531.34;5337795;26;20435;-62
2024/04/21 05:27:53;;;;;;;70.93;9.82;;;;;;;-148.24;100.00;61531.34;5337644;26;20019;-61
2024/04/21 05:30:18;;;;;;;63.90;21.48;;;;;;;-148.24;100.00;61531.34;5340205;26;20010;-59
2024/04/21 05:32:44;;;;;;;55.45;9.52;;;;;;;-148.24;100.00;61531.34;5342711;26;20040;-59
2024/04/21 05:35:09;;;;;;;118.78;21.73;;;;;;;-148.24;100.00;61531.34;5337767;26;20008;-59
2024/04/21 05:37:34;;;;;;;45.97;8.45;;;;;;;-148.24;100.00;61531.34;5346409;26;20081;-62
2024/04/21 05:40:00;;;;;;;71.60;16.13;;;;;;;-148.24;100.00;61531.34;5337238;26;20110;-59
2024/04/21 05:42:25;;;;;;;58.10;9.82;;;;;;;-148.24;100.00;61531.34;5339996;26;20021;-60
2024/04/21 05:44:50;;;;;;;57.85;15.05;;;;;;;-148.24;100.00;61531.34;5339049;26;20368;-60
2024/04/21 05:47:16;;;;;;;47.85;10.75;;;;;;;-148.24;100.00;61531.34;5336801;26;20668;-59
2024/04/21 05:49:41;;;;;;;53.10;10.68;;;;;;;-148.24;100.00;61531.34;5335929;26;20021;-58
2024/04/21 05:52:08;;;;;;;101.22;13.35;;;;;;;-148.24;100.00;61531.34;5339348;26;20055;-60
2024/04/21 05:54:33;;;;;;;44.17;7.93;;;;;;;-148.24;100.00;61531.34;5339290;26;20022;-60
2024/04/21 05:56:58;;;;;;;59.97;10.20;;;;;;;-148.24;100.00;61531.34;5338728;26;20012;-61
2024/04/21 05:59:24;;;;;;;56.88;9.70;;;;;;;-148.24;100.00;61531.34;5339337;26;20000;-63
2024/04/21 06:01:49;;;;;;;44.40;13.50;;;;;;;-148.24;100.00;61531.34;5339270;26;20026;-59
2024/04/21 06:04:14;;;;;;;100.70;15.20;;;;;;;-148.24;100.00;61531.34;5340889;26;20001;-63
2024/04/21 06:06:40;;;;;;;59.47;15.23;;;;;;;-148.24;100.00;61531.34;5336841;26;20004;-60
2024/04/21 06:09:05;;;;;;;79.32;10.80;;;;;;;-148.24;100.00;61531.34;5334943;26;20005;-61
2024/04/21 06:11:30;;;;;;;37.47;10.85;;;;;;;-148.24;100.00;61531.34;5338277;26;20000;-59
2024/04/21 06:13:55;;;;;;;58.85;9.65;;;;;;;-148.24;100.00;61531.34;5336523;26;20008;-59
2024/04/21 06:16:21;;;;;;;52.85;10.35;;;;;;;-148.24;100.00;61531.34;5338722;26;20540;-58
2024/04/21 06:18:46;;;;;;;46.00;12.70;;;;;;;-148.24;100.00;61531.34;5340058;26;20411;-62
2024/04/21 06:21:11;;;;;;;116.50;15.82;;;;;;;-148.24;100.00;61531.34;5334739;26;20412;-58
2024/04/21 06:23:37;;;;;;;50.17;8.60;;;;;;;-148.24;100.00;61531.34;5340028;26;20008;-59
2024/04/21 06:26:02;;;;;;;66.55;13.23;;;;;;;-148.24;100.00;61531.34;5339830;26;20008;-59
2024/04/21 06:28:28;;;;;;;58.70;13.55;;;;;;;-148.24;100.00;61531.34;5339613;26;20059;-59
2024/04/21 06:30:53;;;;;;;39.20;8.50;;;;;;;-148.24;100.00;61531.34;5340959;26;20016;-60
2024/04/21 06:33:19;;;;;;;49.92;15.18;;;;;;;-148.24;100.00;61531.34;5336978;26;20016;-61
2024/04/21 06:35:47;;;;;;;51.17;11.75;;;;;;;-148.24;100.00;61531.34;5340204;26;20012;-59
2024/04/21 06:38:12;;;;;;;89.93;12.40;;;;;;;-148.24;100.00;61531.34;5342279;26;20485;-59
2024/04/21 06:40:37;;;;;;;35.58;9.10;;;;;;;-148.24;100.00;61531.34;5337036;26;20015;-61
2024/04/21 06:43:03;;;;;;;81.53;11.20;;;;;;;-148.24;100.00;61531.34;5341326;26;20477;-60
2024/04/21 06:45:28;;;;;;;44.22;7.75;;;;;;;-148.24;100.00;61531.34;5347010;26;20165;-61
2024/04/21 06:47:53;;;;;;;38.80;8.20;;;;;;;-148.24;100.00;61531.34;5339225;26;20448;-60
2024/04/21 06:50:19;;;;;;;57.78;9.02;;;;;;;-148.24;100.00;61531.34;5340201;26;20001;-59
2024/04/21 06:52:44;;;;;;;65.05;11.20;;;;;;;-148.24;100.00;61531.34;5338099;26;20020;-60
2024/04/21 06:55:09;;;;;;;85.47;10.45;;;;;;;-148.24;100.00;61531.34;5337342;26;20015;-61
2024/04/21 06:57:34;;;;;;;38.10;9.27;;;;;;;-148.24;100.00;61531.34;5338360;26;20657;-59
2024/04/21 07:00:00;;;;;;;70.60;13.27;;;;;;;-148.24;100.00;61531.34;5340880;26;20008;-62
2024/04/21 07:02:25;;;;;;;45.70;10.77;;;;;;;-148.24;100.00;61531.34;5334732;26;20001;-60
2024/04/21 07:04:50;;;;;;;45.65;12.98;;;;;;;-148.24;100.00;61531.34;5340606;26;20004;-59
2024/04/21 07:07:17;;;;;;;97.90;12.02;;;;;;;-148.24;100.00;61531.34;5333213;26;20716;-60
2024/04/21 07:09:42;;;;;;;55.30;8.70;;;;;;;-148.24;100.00;61531.34;5343628;26;20041;-61
2024/04/21 07:12:08;;;;;;;74.45;10.35;;;;;;;-148.24;100.00;61531.34;5337421;26;20001;-59
2024/04/21 07:14:33;;;;;;;47.67;7.57;;;;;;;-148.24;100.00;61531.34;5334087;26;20103;-62
2024/04/21 07:16:58;;;;;;;45.00;8.65;;;;;;;-148.24;100.00;61531.34;5333060;26;20349;-60
2024/04/21 07:19:24;;;;;;;44.33;12.57;;;;;;;-148.24;100.00;61531.34;5334396;26;20004;-60
2024/04/21 07:21:49;;;;;;;55.88;7.90;;;;;;;-148.24;100.00;61531.34;5335964;26;20016;-60
2024/04/21 07:24:15;;;;;;;95.63;10.70;;;;;;;-148.24;100.00;61531.34;5335902;26;20447;-62
2024/04/21 07:26:40;;;;;;;38.42;8.00;;;;;;;-148.24;100.00;61531.34;5336189;26;20473;-59
2024/04/21 07:29:06;;;;;;;62.67;9.77;;;;;;;-148.24;100.00;61531.34;5338578;26;20365;-59
2024/04/21 07:31:31;;;;;;;49.88;7.55;;;;;;;-148.24;100.00;61531.34;5337506;26;20059;-58
2024/04/21 07:33:57;;;;;;;42.47;9.98;;;;;;;-148.24;100.00;61531.34;5337111;26;20016;-58
2024/04/21 07:36:22;;;;;;;46.78;10.15;;;;;;;-148.24;100.00;61531.34;5336814;26;20552;-61
2024/04/21 07:38:51;;;;;;;58.75;10.25;;;;;;;-148.24;100.00;61531.34;5338370;26;20011;-60
2024/04/21 07:41:16;;;;;;;97.40;12.23;;;;;;;-148.24;100.00;61531.34;5333131;26;20019;-60
2024/04/21 07:43:41;;;;;;;39.70;7.68;;;;;;;-148.24;100.00;61531.34;5340561;26;20349;-59
2024/04/21 07:46:07;;;;;;;68.93;11.20;;;;;;;-148.24;100.00;61531.34;5335991;26;20001;-60
2024/04/21 07:48:32;;;;;;;40.15;7.53;;;;;;;-148.24;100.00;61531.34;5336202;26;20494;-59
2024/04/21 07:50:57;;;;;;;42.05;12.80;;;;;;;-148.24;100.00;61531.34;5334121;26;20037;-60
2024/04/21 07:53:23;;;;;;;69.07;9.43;;;;;;;-148.24;100.00;61531.34;5334464;26;21739;-61
2024/04/21 07:55:48;;;;;;;44.13;7.72;;;;;;;-148.24;100.00;61531.34;5338061;26;19996;-59
2024/04/21 07:58:13;;;;;;;81.28;11.05;;;;;;;-148.24;100.00;61531.34;5337786;26;20044;-61
2024/04/21 08:00:39;;;;;;;60.45;10.00;;;;;;;-148.24;100.00;61531.34;5343183;26;20016;-62
2024/04/21 08:03:04;;;;;;;50.85;9.13;;;;;;;-148.24;100.00;61531.34;5335203;26;20016;-58
2024/04/21 08:05:30;;;;;;;51.75;8.40;;;;;;;-148.24;100.00;61531.34;5335630;26;20008;-61
2024/04/21 08:07:55;;;;;;;52.70;9.35;;;;;;;-148.24;100.00;61531.34;5336034;26;20004;-60
2024/04/21 08:10:20;;;;;;;84.45;11.77;;;;;;;-148.24;100.00;61531.34;5338697;26;20001;-58
2024/04/21 08:12:46;;;;;;;42.95;10.02;;;;;;;-148.24;100.00;61531.34;5338880;26;20008;-58
2024/04/21 08:15:12;;;;;;;86.00;11.32;;;;;;;-148.24;100.00;61531.34;5334433;26;20504;-61
2024/04/21 08:17:37;;;;;;;44.08;8.73;;;;;;;-148.24;100.00;61531.34;5339502;26;20019;-60
2024/04/21 08:20:03;;;;;;;29.58;8.43;;;;;;;-148.24;100.00;61531.34;5339029;26;20023;-60
2024/04/21 08:22:29;;;;;;;55.50;11.27;;;;;;;-148.24;100.00;61531.34;5337518;26;20040;-60
2024/04/21 08:24:54;;;;;;;57.88;9.73;;;;;;;-148.24;100.00;61531.34;5340213;26;20009;-60
2024/04/21 08:27:20;;;;;;;94.35;11.98;;;;;;;-148.24;100.00;61531.34;5331857;26;20000;-58
2024/04/21 08:29:45;;;;;;;46.65;8.85;;;;;;;-148.24;100.00;61531.34;5335155;26;20045;-60
2024/04/21 08:32:10;;;;;;;91.18;11.20;;;;;;;-148.24;100.00;61531.34;5363522;26;20446;-58
2024/04/21 08:34:36;;;;;;;38.15;8.52;;;;;;;-148.24;100.00;61531.34;5334940;26;20004;-61
2024/04/21 08:37:02;;;;;;;44.53;8.98;;;;;;;-148.24;100.00;61531.34;5336637;26;20000;-62
2024/04/21 08:39:28;;;;;;;62.90;10.77;;;;;;;-148.24;100.00;61531.34;5335239;26;20007;-60
2024/04/21 08:41:55;;;;;;;42.63;8.52;;;;;;;-148.24;100.00;61531.34;5334772;26;20053;-60
2024/04/21 08:44:22;;;;;;;79.57;10.93;;;;;;;-148.24;100.00;61531.34;5333447;26;20090;-61
2024/04/21 08:46:50;;;;;;;58.83;10.73;;;;;;;-148.24;100.00;61531.34;5334035;26;20033;-62
2024/04/21 08:49:16;;;;;;;83.40;12.40;;;;;;;-148.24;100.00;61531.34;5333022;26;20008;-59
2024/04/21 08:51:43;;;;;;;43.38;8.25;;;;;;;-148.24;100.00;61531.34;5331490;26;20000;-61
2024/04/21 08:54:09;;;;;;;51.13;9.07;;;;;;;-148.24;100.00;61531.34;5335830;26;20001;-58
2024/04/21 08:56:40;;;;;;;49.33;9.00;;;;;;;-148.24;100.00;61531.34;5336027;26;20369;-61
2024/04/21 08:59:06;;;;;;;44.55;9.77;;;;;;;-148.24;100.00;61531.34;5332680;26;20037;-62
2024/04/21 09:01:32;;;;;;;37.47;8.98;;;;;;;-148.24;100.00;61531.34;5333353;26;19997;-62
2024/04/21 09:03:57;;;;;;;34.08;9.43;;;;;;;-148.24;100.00;61531.34;5335033;26;19997;-59
2024/04/21 09:06:27;;;;;;;74.50;11.05;;;;;;;-148.24;100.00;61531.34;5331563;26;20468;-61
2024/04/21 09:08:53;;;;;;;51.42;10.85;;;;;;;-148.24;100.00;61531.34;5335032;26;20483;-62
2024/04/21 09:11:19;;;;;;;127.80;14.70;;;;;;;-148.24;100.00;61531.34;5332784;26;20452;-58
2024/04/21 09:13:45;;;;;;;44.78;9.27;;;;;;;-148.24;100.00;61531.34;5334867;26;19996;-62
2024/04/21 09:16:10;;;;;;;69.22;10.77;;;;;;;-148.24;100.00;61531.34;5331618;26;20427;-62
2024/04/21 09:18:36;;;;;;;45.35;8.27;;;;;;;-148.24;100.00;61531.34;5334206;26;20012;-59
2024/04/21 09:21:02;;;;;;;38.40;9.65;;;;;;;-148.24;100.00;61531.34;5334295;26;19997;-59
2024/04/21 09:23:27;;;;;;;106.82;13.77;;;;;;;-148.24;100.00;61531.34;5330331;26;20012;-59
2024/04/21 09:25:53;;;;;;;45.45;8.77;;;;;;;-148.24;100.00;61531.34;5333885;26;20462;-59
2024/04/21 09:28:18;;;;;;;107.88;15.57;;;;;;;-148.24;100.00;61531.34;5328121;26;19997;-60
2024/04/21 09:30:45;;;;;;;62.65;10.02;;;;;;;-148.24;100.00;61531.34;5331039;26;20080;-60
2024/04/21 09:33:10;;;;;;;40.65;8.43;;;;;;;-148.24;100.00;61531.34;5331261;26;20473;-59
2024/04/21 09:35:36;;;;;;;42.58;8.32;;;;;;;-148.24;100.00;61531.34;5337043;26;20001;-60
2024/04/21 09:38:02;;;;;;;53.20;13.18;;;;;;;-148.24;100.00;61531.34;5337425;26;20011;-65
2024/04/21 09:40:28;;;;;;;94.18;12.02;;;;;;;-148.24;100.00;61531.34;5332956;26;19992;-62
2024/04/21 09:42:54;;;;;;;50.65;9.52;;;;;;;-148.24;100.00;61531.34;5335431;26;19996;-60
2024/04/21 09:45:20;;;;;;;107.53;13.45;;;;;;;-148.24;100.00;61531.34;5332564;26;20265;-61
2024/04/21 09:47:46;;;;;;;40.22;9.80;;;;;;;-148.24;100.00;61531.34;5336595;26;20037;-61
2024/04/21 09:50:12;;;;;;;55.42;9.05;;;;;;;-148.24;100.00;61531.34;5335544;26;20457;-62
2024/04/21 09:52:38;;;;;;;57.78;10.15;;;;;;;-148.24;100.00;61531.34;5335595;26;20016;-62
2024/04/21 09:55:05;;;;;;;46.33;9.65;;;;;;;-148.24;100.00;61531.34;5339001;26;20035;-61
2024/04/21 09:57:34;;;;;;;71.55;10.52;;;;;;;-148.24;100.00;61531.34;5336032;26;20453;-60
2024/04/21 10:00:02;;;;;;;57.17;9.25;;;;;;;-148.24;100.00;61531.34;5339706;26;20447;-58
2024/04/21 10:02:35;;;;;;;74.93;15.70;;;;;;;-148.24;100.00;61531.34;5332039;26;20005;-63
2024/04/21 10:05:12;;;;;;;53.67;10.68;;;;;;;-148.24;100.00;61531.34;5327154;26;20047;-60
2024/04/21 10:07:38;;;;;;;31.90;10.32;;;;;;;-148.24;100.00;61531.34;5334966;26;20000;-59
2024/04/21 10:10:11;;;;;;;48.88;9.45;;;;;;;-148.24;100.00;61531.34;5335633;26;20005;-62
2024/04/21 10:12:38;;;;;;;71.70;13.25;;;;;;;-148.24;100.00;61531.34;5333567;26;20430;-61
2024/04/21 10:15:09;;;;;;;49.08;8.70;;;;;;;-148.24;100.00;61531.34;5335756;26;20078;-58
2024/04/21 10:17:35;;;;;;;40.55;10.75;;;;;;;-148.24;100.00;61531.34;5330351;26;20080;-59
2024/04/21 10:20:05;;;;;;;50.78;10.88;;;;;;;-148.24;100.00;61531.34;5336370;26;21289;-61
2024/04/21 10:22:31;;;;;;;66.60;10.73;;;;;;;-148.24;100.00;61531.34;5331942;26;19996;-63
2024/04/21 10:24:57;;;;;;;50.33;10.75;;;;;;;-148.24;100.00;61531.34;5334219;26;20441;-62
2024/04/21 10:27:22;;;;;;;98.45;11.02;;;;;;;-148.24;100.00;61531.34;5332694;26;20003;-59
2024/04/21 10:29:48;;;;;;;65.75;8.77;;;;;;;-148.24;100.00;61531.34;5366749;26;20011;-62
2024/04/21 10:32:16;;;;;;;55.83;7.97;;;;;;;-148.24;100.00;61531.34;5334501;26;20078;-59
2024/04/21 10:34:46;;;;;;;54.80;7.72;;;;;;;-148.24;100.00;61531.34;5334519;26;20011;-61
2024/04/21 10:37:20;;;;;;;40.67;7.68;;;;;;;-148.24;100.00;61531.34;5332602;26;20410;-62
2024/04/21 10:39:45;;;;;;;61.92;7.57;;;;;;;-148.24;100.00;61531.34;5333156;26;20042;-62
2024/04/21 10:42:14;;;;;;;53.17;7.15;;;;;;;-148.24;100.00;61531.34;5331404;26;20000;-62
2024/04/21 10:44:40;;;;;;;47.67;7.05;;;;;;;-148.24;100.00;61531.34;5341531;26;19996;-61
2024/04/21 10:47:05;;;;;;;68.38;8.25;;;;;;;-148.24;100.00;61531.34;5339484;26;19996;-60
2024/04/21 10:49:31;;;;;;;65.50;8.35;;;;;;;-148.24;100.00;61531.34;5340059;26;20011;-61
2024/04/21 10:51:56;;;;;;;51.33;6.82;;;;;;;-148.24;100.00;61531.34;5334669;26;20001;-59
2024/04/21 10:54:22;;;;;;;57.22;8.43;;;;;;;-148.24;100.00;61531.34;5334040;26;20450;-59
2024/04/21 10:56:49;;;;;;;41.50;6.57;;;;;;;-148.24;100.00;61531.34;5333470;26;20057;-60
2024/04/21 10:59:15;;;;;;;44.65;6.72;;;;;;;-148.24;100.00;61531.34;5336063;26;20040;-57